sensor_id;sensor_type;location;lat;lon;timestamp;temperature;humidity
51908;DHT22;39320;53.214;6.556;2023-01-09T00:01:47;8.60;99.90
51908;DHT22;39320;53.214;6.556;2023-01-09T00:04:14;8.60;99.90
51908;DHT22;39320;53.214;6.556;2023-01-09T00:06:40;8.60;99.90
51908;DHT22;39320;53.214;6.556;2023-01-09T00:09:08;8.70;99.90
51908;DHT22;39320;53.214;6.556;2023-01-09T00:11:34;8.60;99.90
51908;DHT22;39320;53.214;6.556;2023-01-09T00:14:00;8.60;99.90
51908;DHT22;39320;53.214;6.556;2023-01-09T00:16:26;8.60;99.90
51908;DHT22;39320;53.214;6.556;2023-01-09T00:18:52;8.60;99.90
51908;DHT22;39320;53.214;6.556;2023-01-09T00:21:18;8.60;99.90
51908;DHT22;39320;53.214;6.556;2023-01-09T00:23:45;8.60;99.90
51908;DHT22;39320;53.214;6.556;2023-01-09T00:26:18;8.50;99.90
51908;DHT22;39320;53.214;6.556;2023-01-09T00:28:45;8.50;99.90
51908;DHT22;39320;53.214;6.556;2023-01-09T00:31:12;8.40;99.90
51908;DHT22;39320;53.214;6.556;2023-01-09T00:33:41;8.40;99.90
51908;DHT22;39320;53.214;6.556;2023-01-09T00:36:07;8.40;99.90
51908;DHT22;39320;53.214;6.556;2023-01-09T00:38:33;8.30;99.90
51908;DHT22;39320;53.214;6.556;2023-01-09T00:41:03;8.30;99.90
51908;DHT22;39320;53.214;6.556;2023-01-09T00:43:34;8.30;99.90
51908;DHT22;39320;53.214;6.556;2023-01-09T00:46:03;8.30;99.90
51908;DHT22;39320;53.214;6.556;2023-01-09T00:48:31;8.30;99.90
51908;DHT22;39320;53.214;6.556;2023-01-09T00:50:58;8.30;99.90
51908;DHT22;39320;53.214;6.556;2023-01-09T00:53:28;8.30;99.90
51908;DHT22;39320;53.214;6.556;2023-01-09T00:55:59;8.30;99.90
51908;DHT22;39320;53.214;6.556;2023-01-09T00:58:25;8.30;99.90
51908;DHT22;39320;53.214;6.556;2023-01-09T01:00:51;8.30;99.90
51908;DHT22;39320;53.214;6.556;2023-01-09T01:03:17;8.30;99.90
51908;DHT22;39320;53.214;6.556;2023-01-09T01:05:43;8.20;99.90
51908;DHT22;39320;53.214;6.556;2023-01-09T01:08:27;8.20;99.90
51908;DHT22;39320;53.214;6.556;2023-01-09T01:10:52;8.30;99.90
51908;DHT22;39320;53.214;6.556;2023-01-09T01:13:18;8.20;99.90
51908;DHT22;39320;53.214;6.556;2023-01-09T01:15:45;8.30;99.90
51908;DHT22;39320;53.214;6.556;2023-01-09T01:18:12;8.20;99.90
51908;DHT22;39320;53.214;6.556;2023-01-09T01:20:42;8.30;99.90
51908;DHT22;39320;53.214;6.556;2023-01-09T01:23:09;8.20;99.90
51908;DHT22;39320;53.214;6.556;2023-01-09T01:25:39;8.20;99.90
51908;DHT22;39320;53.214;6.556;2023-01-09T01:28:06;8.20;99.90
51908;DHT22;39320;53.214;6.556;2023-01-09T01:30:32;8.20;99.90
51908;DHT22;39320;53.214;6.556;2023-01-09T01:32:58;8.20;99.90
51908;DHT22;39320;53.214;6.556;2023-01-09T01:35:24;8.10;99.90
51908;DHT22;39320;53.214;6.556;2023-01-09T01:37:51;8.10;99.90
51908;DHT22;39320;53.214;6.556;2023-01-09T01:40:17;8.10;99.90
51908;DHT22;39320;53.214;6.556;2023-01-09T01:42:48;8.10;99.90
51908;DHT22;39320;53.214;6.556;2023-01-09T01:45:19;8.10;99.90
51908;DHT22;39320;53.214;6.556;2023-01-09T01:47:56;8.10;99.90
51908;DHT22;39320;53.214;6.556;2023-01-09T01:50:43;8.10;99.90
51908;DHT22;39320;53.214;6.556;2023-01-09T01:53:14;8.10;99.90
51908;DHT22;39320;53.214;6.556;2023-01-09T01:56:02;8.10;99.90
51908;DHT22;39320;53.214;6.556;2023-01-09T01:58:29;8.10;99.90
51908;DHT22;39320;53.214;6.556;2023-01-09T02:00:55;8.10;99.90
51908;DHT22;39320;53.214;6.556;2023-01-09T02:03:24;8.10;99.90
51908;DHT22;39320;53.214;6.556;2023-01-09T02:05:51;8.10;99.90
51908;DHT22;39320;53.214;6.556;2023-01-09T02:08:17;8.10;99.90
51908;DHT22;39320;53.214;6.556;2023-01-09T02:10:43;8.10;99.90
51908;DHT22;39320;53.214;6.556;2023-01-09T02:13:09;8.10;99.90
51908;DHT22;39320;53.214;6.556;2023-01-09T02:16:08;8.10;99.90
51908;DHT22;39320;53.214;6.556;2023-01-09T02:21:17;8.10;99.90
51908;DHT22;39320;53.214;6.556;2023-01-09T02:27:07;8.00;99.90
51908;DHT22;39320;53.214;6.556;2023-01-09T02:30:24;8.00;99.90
51908;DHT22;39320;53.214;6.556;2023-01-09T02:33:15;8.10;99.90
51908;DHT22;39320;53.214;6.556;2023-01-09T02:38:48;8.00;99.90
51908;DHT22;39320;53.214;6.556;2023-01-09T02:44:26;8.00;99.90
51908;DHT22;39320;53.214;6.556;2023-01-09T02:49:45;8.00;99.90
51908;DHT22;39320;53.214;6.556;2023-01-09T02:58:40;8.00;99.90
51908;DHT22;39320;53.214;6.556;2023-01-09T03:04:30;7.90;99.90
51908;DHT22;39320;53.214;6.556;2023-01-09T03:09:40;7.90;99.90
51908;DHT22;39320;53.214;6.556;2023-01-09T03:12:13;7.80;99.90
51908;DHT22;39320;53.214;6.556;2023-01-09T03:14:45;7.80;99.90
51908;DHT22;39320;53.214;6.556;2023-01-09T03:17:15;7.80;99.90
51908;DHT22;39320;53.214;6.556;2023-01-09T03:19:44;7.80;99.90
51908;DHT22;39320;53.214;6.556;2023-01-09T03:22:11;7.80;99.90
51908;DHT22;39320;53.214;6.556;2023-01-09T03:24:37;7.80;99.90
51908;DHT22;39320;53.214;6.556;2023-01-09T03:27:06;7.70;99.90
51908;DHT22;39320;53.214;6.556;2023-01-09T03:29:32;7.80;99.90
51908;DHT22;39320;53.214;6.556;2023-01-09T03:31:58;7.70;99.90
51908;DHT22;39320;53.214;6.556;2023-01-09T03:34:23;7.80;99.90
51908;DHT22;39320;53.214;6.556;2023-01-09T03:36:49;7.70;99.90
51908;DHT22;39320;53.214;6.556;2023-01-09T03:39:15;7.80;99.90
51908;DHT22;39320;53.214;6.556;2023-01-09T03:41:40;7.70;99.90
51908;DHT22;39320;53.214;6.556;2023-01-09T03:44:06;7.70;99.90
51908;DHT22;39320;53.214;6.556;2023-01-09T03:46:32;7.70;99.90
51908;DHT22;39320;53.214;6.556;2023-01-09T03:48:57;7.70;99.90
51908;DHT22;39320;53.214;6.556;2023-01-09T03:51:23;7.70;99.90
51908;DHT22;39320;53.214;6.556;2023-01-09T03:53:49;7.60;99.90
51908;DHT22;39320;53.214;6.556;2023-01-09T03:56:14;7.60;99.90
51908;DHT22;39320;53.214;6.556;2023-01-09T03:58:40;7.60;99.90
51908;DHT22;39320;53.214;6.556;2023-01-09T04:01:06;7.60;99.90
51908;DHT22;39320;53.214;6.556;2023-01-09T04:03:37;7.60;99.90
51908;DHT22;39320;53.214;6.556;2023-01-09T04:06:04;7.60;99.90
51908;DHT22;39320;53.214;6.556;2023-01-09T04:08:30;7.60;99.90
51908;DHT22;39320;53.214;6.556;2023-01-09T04:10:56;7.50;99.90
51908;DHT22;39320;53.214;6.556;2023-01-09T04:13:22;7.50;99.90
51908;DHT22;39320;53.214;6.556;2023-01-09T04:15:48;7.50;99.90
51908;DHT22;39320;53.214;6.556;2023-01-09T04:18:14;7.50;99.90
51908;DHT22;39320;53.214;6.556;2023-01-09T04:20:40;7.40;99.90
51908;DHT22;39320;53.214;6.556;2023-01-09T04:23:06;7.40;99.90
51908;DHT22;39320;53.214;6.556;2023-01-09T04:25:32;7.40;99.90
51908;DHT22;39320;53.214;6.556;2023-01-09T04:27:58;7.40;99.90
51908;DHT22;39320;53.214;6.556;2023-01-09T04:30:24;7.40;99.90
51908;DHT22;39320;53.214;6.556;2023-01-09T04:32:49;7.40;99.90
51908;DHT22;39320;53.214;6.556;2023-01-09T04:35:17;7.40;99.90
51908;DHT22;39320;53.214;6.556;2023-01-09T04:37:45;7.30;99.90
51908;DHT22;39320;53.214;6.556;2023-01-09T04:40:11;7.30;99.90
51908;DHT22;39320;53.214;6.556;2023-01-09T04:42:37;7.20;99.90
51908;DHT22;39320;53.214;6.556;2023-01-09T04:45:07;7.20;99.90
51908;DHT22;39320;53.214;6.556;2023-01-09T04:47:33;7.20;99.90
51908;DHT22;39320;53.214;6.556;2023-01-09T04:49:59;7.20;99.90
51908;DHT22;39320;53.214;6.556;2023-01-09T04:52:26;7.20;99.90
51908;DHT22;39320;53.214;6.556;2023-01-09T04:54:51;7.20;99.90
51908;DHT22;39320;53.214;6.556;2023-01-09T04:57:17;7.10;99.90
51908;DHT22;39320;53.214;6.556;2023-01-09T04:59:43;7.10;99.90
51908;DHT22;39320;53.214;6.556;2023-01-09T05:02:09;7.20;99.90
51908;DHT22;39320;53.214;6.556;2023-01-09T05:04:35;7.10;99.90
51908;DHT22;39320;53.214;6.556;2023-01-09T05:07:01;7.10;99.90
51908;DHT22;39320;53.214;6.556;2023-01-09T05:09:27;7.10;99.90
51908;DHT22;39320;53.214;6.556;2023-01-09T05:11:52;7.10;99.90
51908;DHT22;39320;53.214;6.556;2023-01-09T05:14:18;7.10;99.90
51908;DHT22;39320;53.214;6.556;2023-01-09T05:16:44;7.10;99.90
51908;DHT22;39320;53.214;6.556;2023-01-09T05:19:09;7.00;99.90
51908;DHT22;39320;53.214;6.556;2023-01-09T05:21:35;7.00;99.90
51908;DHT22;39320;53.214;6.556;2023-01-09T05:24:01;7.00;99.90
51908;DHT22;39320;53.214;6.556;2023-01-09T05:26:27;7.00;99.90
51908;DHT22;39320;53.214;6.556;2023-01-09T05:28:53;7.00;99.90
51908;DHT22;39320;53.214;6.556;2023-01-09T05:31:21;7.00;99.90
51908;DHT22;39320;53.214;6.556;2023-01-09T05:33:47;7.00;99.90
51908;DHT22;39320;53.214;6.556;2023-01-09T05:36:13;7.00;99.90
51908;DHT22;39320;53.214;6.556;2023-01-09T05:38:39;7.00;99.90
51908;DHT22;39320;53.214;6.556;2023-01-09T05:41:05;7.10;99.90
51908;DHT22;39320;53.214;6.556;2023-01-09T05:43:32;7.10;99.90
51908;DHT22;39320;53.214;6.556;2023-01-09T05:45:57;7.00;99.90
51908;DHT22;39320;53.214;6.556;2023-01-09T05:48:23;7.00;99.90
51908;DHT22;39320;53.214;6.556;2023-01-09T05:50:49;7.00;99.90
51908;DHT22;39320;53.214;6.556;2023-01-09T05:53:15;7.00;99.90
51908;DHT22;39320;53.214;6.556;2023-01-09T05:55:40;7.10;99.90
51908;DHT22;39320;53.214;6.556;2023-01-09T05:58:06;7.10;99.90
51908;DHT22;39320;53.214;6.556;2023-01-09T06:00:32;7.10;99.90
51908;DHT22;39320;53.214;6.556;2023-01-09T06:02:58;7.20;99.90
51908;DHT22;39320;53.214;6.556;2023-01-09T06:05:23;7.10;99.90
51908;DHT22;39320;53.214;6.556;2023-01-09T06:07:49;7.10;99.90
51908;DHT22;39320;53.214;6.556;2023-01-09T06:10:15;7.10;99.90
51908;DHT22;39320;53.214;6.556;2023-01-09T06:12:47;7.10;99.90
51908;DHT22;39320;53.214;6.556;2023-01-09T06:15:12;7.10;99.90
51908;DHT22;39320;53.214;6.556;2023-01-09T06:17:40;7.10;99.90
51908;DHT22;39320;53.214;6.556;2023-01-09T06:20:06;7.10;99.90
51908;DHT22;39320;53.214;6.556;2023-01-09T06:22:32;7.10;99.90
51908;DHT22;39320;53.214;6.556;2023-01-09T06:24:58;7.10;99.90
51908;DHT22;39320;53.214;6.556;2023-01-09T06:27:24;7.10;99.90
51908;DHT22;39320;53.214;6.556;2023-01-09T06:29:50;7.10;99.90
51908;DHT22;39320;53.214;6.556;2023-01-09T06:32:16;7.10;99.90
51908;DHT22;39320;53.214;6.556;2023-01-09T06:34:41;7.20;99.90
51908;DHT22;39320;53.214;6.556;2023-01-09T06:37:07;7.20;99.90
51908;DHT22;39320;53.214;6.556;2023-01-09T06:39:33;7.20;99.90
51908;DHT22;39320;53.214;6.556;2023-01-09T06:41:58;7.20;99.90
51908;DHT22;39320;53.214;6.556;2023-01-09T06:44:24;7.20;99.90
51908;DHT22;39320;53.214;6.556;2023-01-09T06:46:50;7.20;99.90
51908;DHT22;39320;53.214;6.556;2023-01-09T06:49:15;7.20;99.90
51908;DHT22;39320;53.214;6.556;2023-01-09T06:51:42;7.20;99.90
51908;DHT22;39320;53.214;6.556;2023-01-09T06:54:08;7.20;99.90
51908;DHT22;39320;53.214;6.556;2023-01-09T06:56:34;7.20;99.90
51908;DHT22;39320;53.214;6.556;2023-01-09T06:58:59;7.20;99.90
51908;DHT22;39320;53.214;6.556;2023-01-09T07:01:26;7.20;99.90
51908;DHT22;39320;53.214;6.556;2023-01-09T07:03:52;7.20;99.90
51908;DHT22;39320;53.214;6.556;2023-01-09T07:06:17;7.20;99.90
51908;DHT22;39320;53.214;6.556;2023-01-09T07:08:44;7.20;99.90
51908;DHT22;39320;53.214;6.556;2023-01-09T07:11:10;7.20;99.90
51908;DHT22;39320;53.214;6.556;2023-01-09T07:13:35;7.10;99.90
51908;DHT22;39320;53.214;6.556;2023-01-09T07:16:03;7.10;99.90
51908;DHT22;39320;53.214;6.556;2023-01-09T07:18:30;7.00;99.90
51908;DHT22;39320;53.214;6.556;2023-01-09T07:20:56;7.00;99.90
51908;DHT22;39320;53.214;6.556;2023-01-09T07:23:21;7.00;99.90
51908;DHT22;39320;53.214;6.556;2023-01-09T07:25:50;7.00;99.90
51908;DHT22;39320;53.214;6.556;2023-01-09T07:28:15;7.00;99.90
51908;DHT22;39320;53.214;6.556;2023-01-09T07:30:41;7.00;99.90
51908;DHT22;39320;53.214;6.556;2023-01-09T07:33:07;6.90;99.90
51908;DHT22;39320;53.214;6.556;2023-01-09T07:35:33;7.00;99.90
51908;DHT22;39320;53.214;6.556;2023-01-09T07:37:58;7.00;99.90
51908;DHT22;39320;53.214;6.556;2023-01-09T07:40:24;7.00;99.90
51908;DHT22;39320;53.214;6.556;2023-01-09T07:42:52;7.00;99.90
51908;DHT22;39320;53.214;6.556;2023-01-09T07:45:18;7.00;99.90
51908;DHT22;39320;53.214;6.556;2023-01-09T07:47:44;7.00;99.90
51908;DHT22;39320;53.214;6.556;2023-01-09T07:50:10;7.00;99.90
51908;DHT22;39320;53.214;6.556;2023-01-09T07:52:36;7.00;99.90
51908;DHT22;39320;53.214;6.556;2023-01-09T07:55:01;7.00;99.90
51908;DHT22;39320;53.214;6.556;2023-01-09T07:57:27;7.00;99.90
51908;DHT22;39320;53.214;6.556;2023-01-09T07:59:55;7.50;99.90
51908;DHT22;39320;53.214;6.556;2023-01-09T08:02:21;6.80;99.90
51908;DHT22;39320;53.214;6.556;2023-01-09T08:04:47;7.00;99.90
51908;DHT22;39320;53.214;6.556;2023-01-09T08:07:12;6.90;99.90
51908;DHT22;39320;53.214;6.556;2023-01-09T08:09:38;6.90;99.90
51908;DHT22;39320;53.214;6.556;2023-01-09T08:12:04;6.90;99.90
51908;DHT22;39320;53.214;6.556;2023-01-09T08:14:30;7.00;99.90
51908;DHT22;39320;53.214;6.556;2023-01-09T08:16:56;7.10;99.90
51908;DHT22;39320;53.214;6.556;2023-01-09T08:19:21;7.00;99.90
51908;DHT22;39320;53.214;6.556;2023-01-09T08:21:48;7.10;99.90
51908;DHT22;39320;53.214;6.556;2023-01-09T08:24:15;7.60;99.90
51908;DHT22;39320;53.214;6.556;2023-01-09T08:26:41;7.10;99.90
51908;DHT22;39320;53.214;6.556;2023-01-09T08:29:06;7.10;99.90
51908;DHT22;39320;53.214;6.556;2023-01-09T08:31:32;7.10;99.90
51908;DHT22;39320;53.214;6.556;2023-01-09T08:33:58;7.10;99.90
51908;DHT22;39320;53.214;6.556;2023-01-09T08:36:23;7.10;99.90
51908;DHT22;39320;53.214;6.556;2023-01-09T08:38:49;7.10;99.90
51908;DHT22;39320;53.214;6.556;2023-01-09T08:41:15;7.10;99.90
51908;DHT22;39320;53.214;6.556;2023-01-09T08:43:59;7.30;99.90
51908;DHT22;39320;53.214;6.556;2023-01-09T08:46:44;7.20;99.90
51908;DHT22;39320;53.214;6.556;2023-01-09T08:49:28;7.10;99.90
51908;DHT22;39320;53.214;6.556;2023-01-09T08:51:54;7.10;99.90
51908;DHT22;39320;53.214;6.556;2023-01-09T08:54:19;7.20;99.90
51908;DHT22;39320;53.214;6.556;2023-01-09T08:56:45;7.20;99.90
51908;DHT22;39320;53.214;6.556;2023-01-09T08:59:11;7.20;99.90
51908;DHT22;39320;53.214;6.556;2023-01-09T09:01:37;7.20;99.90
51908;DHT22;39320;53.214;6.556;2023-01-09T09:04:02;7.20;99.90
51908;DHT22;39320;53.214;6.556;2023-01-09T09:06:30;7.20;99.90
51908;DHT22;39320;53.214;6.556;2023-01-09T09:08:56;7.20;99.90
51908;DHT22;39320;53.214;6.556;2023-01-09T09:11:22;7.30;99.90
51908;DHT22;39320;53.214;6.556;2023-01-09T09:13:47;7.60;99.90
51908;DHT22;39320;53.214;6.556;2023-01-09T09:16:13;7.30;99.90
51908;DHT22;39320;53.214;6.556;2023-01-09T09:18:39;7.30;99.90
51908;DHT22;39320;53.214;6.556;2023-01-09T09:21:04;7.30;99.90
51908;DHT22;39320;53.214;6.556;2023-01-09T09:23:30;7.30;99.90
51908;DHT22;39320;53.214;6.556;2023-01-09T09:25:56;7.40;99.90
51908;DHT22;39320;53.214;6.556;2023-01-09T09:28:22;7.60;99.90
51908;DHT22;39320;53.214;6.556;2023-01-09T09:30:47;7.40;99.90
51908;DHT22;39320;53.214;6.556;2023-01-09T09:33:13;7.40;99.90
51908;DHT22;39320;53.214;6.556;2023-01-09T09:35:39;7.40;99.90
51908;DHT22;39320;53.214;6.556;2023-01-09T09:38:05;7.40;99.90
51908;DHT22;39320;53.214;6.556;2023-01-09T09:40:50;7.40;99.90
51908;DHT22;39320;53.214;6.556;2023-01-09T09:43:54;7.40;99.90
51908;DHT22;39320;53.214;6.556;2023-01-09T09:46:48;7.50;99.90
51908;DHT22;39320;53.214;6.556;2023-01-09T09:49:25;7.40;99.90
51908;DHT22;39320;53.214;6.556;2023-01-09T09:52:11;7.50;99.90
51908;DHT22;39320;53.214;6.556;2023-01-09T09:54:47;7.50;99.90
51908;DHT22;39320;53.214;6.556;2023-01-09T09:57:17;7.50;99.90
51908;DHT22;39320;53.214;6.556;2023-01-09T09:59:45;7.40;99.90
51908;DHT22;39320;53.214;6.556;2023-01-09T10:02:38;7.50;99.90
51908;DHT22;39320;53.214;6.556;2023-01-09T10:05:17;7.50;99.90
51908;DHT22;39320;53.214;6.556;2023-01-09T10:07:49;7.60;99.90
51908;DHT22;39320;53.214;6.556;2023-01-09T10:10:36;7.50;99.90
51908;DHT22;39320;53.214;6.556;2023-01-09T10:13:07;7.50;99.90
51908;DHT22;39320;53.214;6.556;2023-01-09T10:16:03;7.50;99.90
51908;DHT22;39320;53.214;6.556;2023-01-09T10:26:51;7.60;99.90
51908;DHT22;39320;53.214;6.556;2023-01-09T10:35:01;7.60;99.90
51908;DHT22;39320;53.214;6.556;2023-01-09T10:37:33;7.60;99.90
51908;DHT22;39320;53.214;6.556;2023-01-09T10:40:13;7.60;99.90
51908;DHT22;39320;53.214;6.556;2023-01-09T10:45:41;7.70;99.90
51908;DHT22;39320;53.214;6.556;2023-01-09T10:48:32;7.70;99.90
51908;DHT22;39320;53.214;6.556;2023-01-09T10:51:00;7.70;99.90
51908;DHT22;39320;53.214;6.556;2023-01-09T10:53:31;7.70;99.90
51908;DHT22;39320;53.214;6.556;2023-01-09T10:56:17;7.70;99.90
51908;DHT22;39320;53.214;6.556;2023-01-09T10:58:45;7.70;99.90
51908;DHT22;39320;53.214;6.556;2023-01-09T11:01:11;7.70;99.90
51908;DHT22;39320;53.214;6.556;2023-01-09T11:03:37;7.70;99.90
51908;DHT22;39320;53.214;6.556;2023-01-09T11:06:05;7.70;99.90
51908;DHT22;39320;53.214;6.556;2023-01-09T11:08:43;7.70;99.90
51908;DHT22;39320;53.214;6.556;2023-01-09T11:11:09;7.70;99.90
51908;DHT22;39320;53.214;6.556;2023-01-09T11:13:37;7.70;99.90
51908;DHT22;39320;53.214;6.556;2023-01-09T11:16:18;7.80;99.90
51908;DHT22;39320;53.214;6.556;2023-01-09T11:19:02;7.80;99.90
51908;DHT22;39320;53.214;6.556;2023-01-09T11:21:36;7.80;99.90
51908;DHT22;39320;53.214;6.556;2023-01-09T11:24:30;7.80;99.90
51908;DHT22;39320;53.214;6.556;2023-01-09T11:27:17;7.80;99.90
51908;DHT22;39320;53.214;6.556;2023-01-09T11:32:34;7.80;99.90
51908;DHT22;39320;53.214;6.556;2023-01-09T11:35:00;7.80;99.90
51908;DHT22;39320;53.214;6.556;2023-01-09T11:37:29;7.80;99.90
51908;DHT22;39320;53.214;6.556;2023-01-09T11:39:59;7.80;99.90
51908;DHT22;39320;53.214;6.556;2023-01-09T11:42:27;7.80;99.90
51908;DHT22;39320;53.214;6.556;2023-01-09T11:45:17;7.80;99.90
51908;DHT22;39320;53.214;6.556;2023-01-09T11:47:44;7.80;99.90
51908;DHT22;39320;53.214;6.556;2023-01-09T11:50:16;7.80;99.90
51908;DHT22;39320;53.214;6.556;2023-01-09T11:52:42;7.80;99.90
51908;DHT22;39320;53.214;6.556;2023-01-09T11:55:12;7.80;99.90
51908;DHT22;39320;53.214;6.556;2023-01-09T11:57:40;7.80;99.90
51908;DHT22;39320;53.214;6.556;2023-01-09T12:00:27;7.70;99.90
51908;DHT22;39320;53.214;6.556;2023-01-09T12:09:00;7.80;99.90
51908;DHT22;39320;53.214;6.556;2023-01-09T12:11:46;7.80;99.90
51908;DHT22;39320;53.214;6.556;2023-01-09T12:14:30;7.80;99.90
51908;DHT22;39320;53.214;6.556;2023-01-09T12:26:04;7.70;99.90
51908;DHT22;39320;53.214;6.556;2023-01-09T12:31:41;7.70;99.90
51908;DHT22;39320;53.214;6.556;2023-01-09T12:37:02;7.70;99.90
51908;DHT22;39320;53.214;6.556;2023-01-09T12:40:27;7.70;99.90
51908;DHT22;39320;53.214;6.556;2023-01-09T12:43:07;7.70;99.90
51908;DHT22;39320;53.214;6.556;2023-01-09T12:48:56;7.70;99.90
51908;DHT22;39320;53.214;6.556;2023-01-09T12:56:30;7.70;99.90
51908;DHT22;39320;53.214;6.556;2023-01-09T13:01:48;7.70;99.90
51908;DHT22;39320;53.214;6.556;2023-01-09T13:04:20;7.70;99.90
51908;DHT22;39320;53.214;6.556;2023-01-09T13:06:52;7.60;99.90
51908;DHT22;39320;53.214;6.556;2023-01-09T13:12:14;7.60;99.90
51908;DHT22;39320;53.214;6.556;2023-01-09T13:15:03;7.60;99.90
51908;DHT22;39320;53.214;6.556;2023-01-09T13:17:41;7.60;99.90
51908;DHT22;39320;53.214;6.556;2023-01-09T13:20:24;7.70;99.90
51908;DHT22;39320;53.214;6.556;2023-01-09T13:22:51;7.70;99.90
51908;DHT22;39320;53.214;6.556;2023-01-09T13:25:45;7.70;99.90
51908;DHT22;39320;53.214;6.556;2023-01-09T13:28:20;7.70;99.90
51908;DHT22;39320;53.214;6.556;2023-01-09T13:33:34;7.70;99.90
51908;DHT22;39320;53.214;6.556;2023-01-09T13:36:01;7.70;99.90
51908;DHT22;39320;53.214;6.556;2023-01-09T13:38:29;7.70;99.90
51908;DHT22;39320;53.214;6.556;2023-01-09T13:44:01;7.60;99.90
51908;DHT22;39320;53.214;6.556;2023-01-09T13:46:42;7.70;99.90
51908;DHT22;39320;53.214;6.556;2023-01-09T13:52:42;7.80;99.90
51908;DHT22;39320;53.214;6.556;2023-01-09T13:57:38;7.90;99.90
51908;DHT22;39320;53.214;6.556;2023-01-09T14:05:11;8.00;99.90
51908;DHT22;39320;53.214;6.556;2023-01-09T14:07:44;8.00;99.90
51908;DHT22;39320;53.214;6.556;2023-01-09T14:10:23;8.00;99.90
51908;DHT22;39320;53.214;6.556;2023-01-09T14:12:51;8.00;99.90
51908;DHT22;39320;53.214;6.556;2023-01-09T14:15:39;8.20;99.90
51908;DHT22;39320;53.214;6.556;2023-01-09T14:18:24;8.00;99.90
51908;DHT22;39320;53.214;6.556;2023-01-09T14:21:00;8.00;99.90
51908;DHT22;39320;53.214;6.556;2023-01-09T14:23:29;8.10;99.90
51908;DHT22;39320;53.214;6.556;2023-01-09T14:25:57;8.10;99.90
51908;DHT22;39320;53.214;6.556;2023-01-09T14:28:28;8.10;99.90
51908;DHT22;39320;53.214;6.556;2023-01-09T14:33:24;8.20;99.90
51908;DHT22;39320;53.214;6.556;2023-01-09T14:36:32;8.10;99.90
51908;DHT22;39320;53.214;6.556;2023-01-09T14:38:46;8.20;99.90
51908;DHT22;39320;53.214;6.556;2023-01-09T14:50:27;8.10;99.90
51908;DHT22;39320;53.214;6.556;2023-01-09T14:55:56;8.10;99.90
51908;DHT22;39320;53.214;6.556;2023-01-09T14:58:27;8.20;99.90
51908;DHT22;39320;53.214;6.556;2023-01-09T15:01:05;8.10;99.90
51908;DHT22;39320;53.214;6.556;2023-01-09T15:03:39;8.10;99.90
51908;DHT22;39320;53.214;6.556;2023-01-09T15:06:12;8.10;99.90
51908;DHT22;39320;53.214;6.556;2023-01-09T15:08:44;8.10;99.90
51908;DHT22;39320;53.214;6.556;2023-01-09T15:11:11;8.20;99.90
51908;DHT22;39320;53.214;6.556;2023-01-09T15:13:44;8.10;99.90
51908;DHT22;39320;53.214;6.556;2023-01-09T15:16:17;8.10;99.90
51908;DHT22;39320;53.214;6.556;2023-01-09T15:18:46;8.10;99.90
51908;DHT22;39320;53.214;6.556;2023-01-09T15:21:27;8.20;99.90
51908;DHT22;39320;53.214;6.556;2023-01-09T15:24:11;8.20;99.90
51908;DHT22;39320;53.214;6.556;2023-01-09T15:26:37;8.10;99.90
51908;DHT22;39320;53.214;6.556;2023-01-09T15:29:13;8.20;99.90
51908;DHT22;39320;53.214;6.556;2023-01-09T15:31:43;8.20;99.90
51908;DHT22;39320;53.214;6.556;2023-01-09T15:34:16;8.20;99.90
51908;DHT22;39320;53.214;6.556;2023-01-09T15:36:42;8.20;99.90
51908;DHT22;39320;53.214;6.556;2023-01-09T15:39:11;8.20;99.90
51908;DHT22;39320;53.214;6.556;2023-01-09T15:41:38;8.20;99.90
51908;DHT22;39320;53.214;6.556;2023-01-09T15:44:25;8.20;99.90
51908;DHT22;39320;53.214;6.556;2023-01-09T15:46:56;8.20;99.90
51908;DHT22;39320;53.214;6.556;2023-01-09T15:49:22;8.20;99.90
51908;DHT22;39320;53.214;6.556;2023-01-09T15:51:49;8.20;99.90
51908;DHT22;39320;53.214;6.556;2023-01-09T15:54:18;8.20;99.90
51908;DHT22;39320;53.214;6.556;2023-01-09T15:56:45;8.20;99.90
51908;DHT22;39320;53.214;6.556;2023-01-09T15:59:23;8.20;99.90
51908;DHT22;39320;53.214;6.556;2023-01-09T16:01:55;8.20;99.90
51908;DHT22;39320;53.214;6.556;2023-01-09T16:04:41;8.20;99.90
51908;DHT22;39320;53.214;6.556;2023-01-09T16:07:13;8.20;99.90
51908;DHT22;39320;53.214;6.556;2023-01-09T16:09:43;8.20;99.90
51908;DHT22;39320;53.214;6.556;2023-01-09T16:12:21;8.10;99.90
51908;DHT22;39320;53.214;6.556;2023-01-09T16:14:57;8.20;99.90
51908;DHT22;39320;53.214;6.556;2023-01-09T16:17:23;8.20;99.90
51908;DHT22;39320;53.214;6.556;2023-01-09T16:19:56;8.10;99.90
51908;DHT22;39320;53.214;6.556;2023-01-09T16:24:48;8.20;99.90
51908;DHT22;39320;53.214;6.556;2023-01-09T16:27:31;8.10;99.90
51908;DHT22;39320;53.214;6.556;2023-01-09T16:32:33;8.00;99.90
51908;DHT22;39320;53.214;6.556;2023-01-09T16:35:02;8.00;99.90
51908;DHT22;39320;53.214;6.556;2023-01-09T16:37:30;7.90;99.90
51908;DHT22;39320;53.214;6.556;2023-01-09T16:42:45;7.90;99.90
51908;DHT22;39320;53.214;6.556;2023-01-09T16:45:39;7.90;99.90
51908;DHT22;39320;53.214;6.556;2023-01-09T16:48:14;7.80;99.90
51908;DHT22;39320;53.214;6.556;2023-01-09T16:50:41;7.80;99.90
51908;DHT22;39320;53.214;6.556;2023-01-09T16:55:39;7.80;99.90
51908;DHT22;39320;53.214;6.556;2023-01-09T16:58:07;7.70;99.90
51908;DHT22;39320;53.214;6.556;2023-01-09T17:00:33;7.70;99.90
51908;DHT22;39320;53.214;6.556;2023-01-09T17:02:59;7.70;99.90
51908;DHT22;39320;53.214;6.556;2023-01-09T17:05:25;7.70;99.90
51908;DHT22;39320;53.214;6.556;2023-01-09T17:07:51;7.70;99.90
51908;DHT22;39320;53.214;6.556;2023-01-09T17:10:20;7.70;99.90
51908;DHT22;39320;53.214;6.556;2023-01-09T17:12:47;7.60;99.90
51908;DHT22;39320;53.214;6.556;2023-01-09T17:15:14;7.60;99.90
51908;DHT22;39320;53.214;6.556;2023-01-09T17:17:40;7.70;99.90
51908;DHT22;39320;53.214;6.556;2023-01-09T17:20:24;7.60;99.90
51908;DHT22;39320;53.214;6.556;2023-01-09T17:22:52;7.60;99.90
51908;DHT22;39320;53.214;6.556;2023-01-09T17:25:17;7.60;99.90
51908;DHT22;39320;53.214;6.556;2023-01-09T17:28:02;7.60;99.90
51908;DHT22;39320;53.214;6.556;2023-01-09T17:30:47;7.60;99.90
51908;DHT22;39320;53.214;6.556;2023-01-09T17:33:16;7.50;99.90
51908;DHT22;39320;53.214;6.556;2023-01-09T17:35:42;7.70;99.90
51908;DHT22;39320;53.214;6.556;2023-01-09T17:38:13;7.50;99.90
51908;DHT22;39320;53.214;6.556;2023-01-09T17:40:39;7.60;99.90
51908;DHT22;39320;53.214;6.556;2023-01-09T17:43:05;7.60;99.90
51908;DHT22;39320;53.214;6.556;2023-01-09T17:45:31;7.60;99.90
51908;DHT22;39320;53.214;6.556;2023-01-09T17:47:57;7.60;99.90
51908;DHT22;39320;53.214;6.556;2023-01-09T17:50:22;7.70;99.90
51908;DHT22;39320;53.214;6.556;2023-01-09T17:52:52;7.70;99.90
51908;DHT22;39320;53.214;6.556;2023-01-09T17:55:18;7.60;99.90
51908;DHT22;39320;53.214;6.556;2023-01-09T17:57:44;7.60;99.90
51908;DHT22;39320;53.214;6.556;2023-01-09T18:00:32;7.60;99.90
51908;DHT22;39320;53.214;6.556;2023-01-09T18:03:05;7.60;99.90
51908;DHT22;39320;53.214;6.556;2023-01-09T18:05:33;7.50;99.90
51908;DHT22;39320;53.214;6.556;2023-01-09T18:08:01;7.50;99.90